Terminal Aerodrome Forecast
Issued by NWS Louisville, KY

Home | Current Version | Previous Version | Text Only | Print | Product List | Glossary On
Versions: 1 2 3 4 5 6 7 8 9 10 11 12 13 14 15 16 17 18 19 20 21 22 23 24
000
FTUS43 KLMK 271121
TAFBWG
TAF
KBWG 271121Z 2712/2812 16003KT 3SM BR SCT005 BKN250
     FM271400 18008KT P6SM BKN250
     FM271700 20012KT P6SM SCT060
     FM280000 17004KT P6SM SCT150 BKN250
      TEMPO 2809/2812 5SM BR=

USA.gov is the U.S. government's official web portal to all federal, state and local government web resources and services.